Clara — V2GQ9 — position and weather

sailwx.info

Track history (hours):
 
Tides and Currents Weather Stations Pressure Air Temp Water Temp Dewpoint Dewpoint Depression Visibility Wind Speed Wind Dir Waves Ship Positions

Clara

Last reported at 2018-Feb-21 12:54 UTC. Time now 2018-Feb-23 20:14 UTC.
Position N 44°00' E 008°23'.

Length 106 m; draft 6.6 m.

Type: Cargo ship. MMSI: 304054000.

Date/timePositionNaut miles runAvg speedWind from/ knotsBaromVisibWave heightAir tempDewpointWater temp
2018-Feb-21 12:54N 44°00' E 008°23'4 9.9
2018-Feb-21 12:30N 44°04' E 008°25'5 9.7
2018-Feb-21 12:00N 44°08' E 008°28'5 9.8
2018-Feb-21 11:30N 44°13' E 008°30'5 9.3
2018-Feb-21 10:59N 44°18' E 008°31'2 3.1
2018-Feb-21 10:30N 44°19' E 008°30'0 0.0
2018-Feb-21 10:00N 44°19' E 008°30'0 0.0
2018-Feb-21 09:30N 44°19' E 008°30'0 0.0
2018-Feb-21 09:00N 44°19' E 008°30'0 0.0
2018-Feb-21 08:30N 44°19' E 008°30'0 0.0
2018-Feb-21 08:00N 44°19' E 008°30'0 0.0
2018-Feb-21 07:30N 44°19' E 008°30'0 0.0
2018-Feb-21 06:57N 44°19' E 008°30'0 0.0
2018-Feb-21 06:30N 44°19' E 008°30'0 0.0
2018-Feb-21 06:00N 44°19' E 008°30'0 0.0
2018-Feb-21 05:30N 44°19' E 008°30'0 0.0
2018-Feb-21 05:00N 44°19' E 008°30'0 0.0
2018-Feb-21 04:30N 44°19' E 008°30'0 0.0
2018-Feb-21 04:00N 44°19' E 008°30'0 0.0
2018-Feb-21 03:30N 44°19' E 008°30'0 0.0
2018-Feb-21 03:00N 44°19' E 008°30'0 0.0
2018-Feb-21 02:30N 44°19' E 008°30'0 0.0
2018-Feb-21 02:00N 44°19' E 008°30'0 0.0
2018-Feb-21 01:30N 44°19' E 008°30'0 0.0
2018-Feb-21 01:00N 44°19' E 008°30'0 0.0
2018-Feb-21 00:30N 44°19' E 008°30'0 0.0
2018-Feb-21 00:00N 44°19' E 008°30'0 0.0
2018-Feb-20 23:30N 44°19' E 008°30'0 0.0
2018-Feb-20 23:00N 44°19' E 008°30'0 0.0
2018-Feb-20 22:30N 44°19' E 008°30'0 0.0
2018-Feb-20 22:00N 44°19' E 008°30'0 0.0
2018-Feb-20 21:30N 44°19' E 008°30'0 0.0
2018-Feb-20 21:00N 44°19' E 008°30'0 0.0
2018-Feb-20 20:30N 44°19' E 008°30'0 0.0
2018-Feb-20 20:00N 44°19' E 008°30'0 0.0
2018-Feb-20 19:30N 44°19' E 008°30'0 0.0
2018-Feb-20 19:00N 44°19' E 008°30'0 0.0
2018-Feb-20 18:30N 44°19' E 008°30'0 0.0
2018-Feb-20 18:00N 44°19' E 008°30'0 0.0
2018-Feb-20 17:30N 44°19' E 008°30'0 0.0
2018-Feb-20 17:00N 44°19' E 008°30'0 0.0
2018-Feb-20 16:27N 44°19' E 008°30'0 0.0
2018-Feb-20 16:00N 44°19' E 008°30'0 0.0
2018-Feb-20 15:30N 44°19' E 008°30'0 0.0
2018-Feb-20 14:57N 44°19' E 008°30'0 0.0
2018-Feb-20 14:30N 44°19' E 008°30'0 0.0
2018-Feb-20 13:53N 44°19' E 008°30'0 0.0
2018-Feb-20 13:29N 44°19' E 008°30'0 0.0
2018-Feb-20 12:59N 44°19' E 008°30'0 0.0
2018-Feb-20 12:29N 44°19' E 008°30'0 0.0
2018-Feb-20 11:59N 44°19' E 008°30'0 0.0
2018-Feb-20 11:29N 44°19' E 008°30'0 0.1
2018-Feb-20 11:00N 44°19' E 008°30'1 2.3
2018-Feb-20 10:30N 44°18' E 008°31'1 1.1
2018-Feb-20 10:00N 44°18' E 008°31'0 1.0
2018-Feb-20 09:30N 44°17' E 008°31'0 0.9
2018-Feb-20 09:00N 44°17' E 008°31'0 0.9
2018-Feb-20 08:30N 44°17' E 008°32'1 1.9
2018-Feb-20 08:00N 44°16' E 008°33'3 6.2
2018-Feb-20 07:30N 44°14' E 008°35'4 8.6
2018-Feb-20 07:00N 44°10' E 008°38'4 8.5
2018-Feb-20 06:30N 44°07' E 008°41'4 8.3
2018-Feb-20 06:00N 44°03' E 008°45'4 8.3
2018-Feb-20 05:30N 43°60' E 008°48'4 8.3
2018-Feb-20 05:00N 43°56' E 008°51'4 8.4
2018-Feb-20 04:30N 43°53' E 008°54'4 8.4
2018-Feb-20 04:00N 43°49' E 008°57'4 8.5
2018-Feb-20 03:30N 43°46' E 009°01'4 8.6
2018-Feb-20 03:00N 43°42' E 009°04'4 8.7
2018-Feb-20 02:30N 43°39' E 009°07'4 8.8
2018-Feb-20 02:00N 43°35' E 009°10'5 9.5
2018-Feb-20 01:30N 43°31' E 009°14'5 9.4
2018-Feb-20 01:00N 43°27' E 009°18'4 8.8
2018-Feb-20 00:30N 43°23' E 009°21'4 8.7
2018-Feb-20 00:00N 43°20' E 009°24'5 9.0
2018-Feb-19 23:30N 43°16' E 009°27'5 9.1
2018-Feb-19 22:58N 43°12' E 009°31'4 8.7
2018-Feb-19 22:29N 43°08' E 009°34'366 8.8
2018-Feb-18 04:41N 38°44' E 015°09'3 9.7
2018-Feb-18 04:24N 38°42' E 015°12'4 9.6
2018-Feb-18 03:59N 38°39' E 015°15'5 9.7
2018-Feb-18 03:30N 38°36' E 015°19'5 9.3
2018-Feb-18 02:58N 38°32' E 015°24'4 9.0
2018-Feb-18 02:30N 38°29' E 015°27'5 9.1
2018-Feb-18 02:00N 38°26' E 015°31'5 9.2
2018-Feb-18 01:30N 38°22' E 015°35'4 9.0
2018-Feb-18 01:00N 38°19' E 015°39'4 7.5
2018-Feb-18 00:30N 38°16' E 015°41'4 6.9
2018-Feb-17 23:59N 38°14' E 015°37'4 9.1
2018-Feb-17 23:30N 38°10' E 015°37'4 8.7
2018-Feb-17 23:00N 38°05' E 015°36'5 9.4
2018-Feb-17 22:30N 38°01' E 015°36'4 8.9
2018-Feb-17 22:00N 37°57' E 015°38'5 9.3
2018-Feb-17 21:30N 37°53' E 015°42'5 9.1
2018-Feb-17 21:00N 37°50' E 015°46'5 8.9
2018-Feb-17 20:29N 37°49' E 015°52'4 8.8
2018-Feb-17 20:00N 37°47' E 015°57'4 8.7
2018-Feb-17 19:30N 37°46' E 016°02'  
2018-Feb-14 01:50N 40°45' E 028°49'3 8.9
2018-Feb-14 01:30N 40°46' E 028°53'5 9.0
2018-Feb-14 00:59N 40°46' E 028°59'4 8.8
2018-Feb-14 00:30N 40°45' E 029°05'4 8.9
2018-Feb-14 00:00N 40°45' E 029°11'5 9.4
2018-Feb-13 23:30N 40°44' E 029°17'5 9.2
2018-Feb-13 22:57N 40°44' E 029°23'5 9.8
2018-Feb-13 22:29N 40°45' E 029°29'  
2018-Feb-11 13:51N 40°45' E 029°32'5 9.2
2018-Feb-11 13:21N 40°44' E 029°26'3 9.3
2018-Feb-11 12:59N 40°43' E 029°21'  
Track history (hours):
 
Tides and Currents Weather Stations Pressure Air Temp Water Temp Dewpoint Dewpoint Depression Visibility Wind Speed Wind Dir Waves Ship Positions

Clara

Last reported at 2018-Feb-21 12:54 UTC. Time now 2018-Feb-23 20:14 UTC.
Position N 44°00' E 008°23'.

Length 106 m; draft 6.6 m.

Type: Cargo ship. MMSI: 304054000.

Date/timePositionNaut miles runAvg speedWind from/ knotsBaromVisibWave heightAir tempDewpointWater temp
2018-Feb-21 12:54N 44°00' E 008°23'4 9.9
2018-Feb-21 12:30N 44°04' E 008°25'5 9.7
2018-Feb-21 12:00N 44°08' E 008°28'5 9.8
2018-Feb-21 11:30N 44°13' E 008°30'5 9.3
2018-Feb-21 10:59N 44°18' E 008°31'2 3.1
2018-Feb-21 10:30N 44°19' E 008°30'0 0.0
2018-Feb-21 10:00N 44°19' E 008°30'0 0.0
2018-Feb-21 09:30N 44°19' E 008°30'0 0.0
2018-Feb-21 09:00N 44°19' E 008°30'0 0.0
2018-Feb-21 08:30N 44°19' E 008°30'0 0.0
2018-Feb-21 08:00N 44°19' E 008°30'0 0.0
2018-Feb-21 07:30N 44°19' E 008°30'0 0.0
2018-Feb-21 06:57N 44°19' E 008°30'0 0.0
2018-Feb-21 06:30N 44°19' E 008°30'0 0.0
2018-Feb-21 06:00N 44°19' E 008°30'0 0.0
2018-Feb-21 05:30N 44°19' E 008°30'0 0.0
2018-Feb-21 05:00N 44°19' E 008°30'0 0.0
2018-Feb-21 04:30N 44°19' E 008°30'0 0.0
2018-Feb-21 04:00N 44°19' E 008°30'0 0.0
2018-Feb-21 03:30N 44°19' E 008°30'0 0.0
2018-Feb-21 03:00N 44°19' E 008°30'0 0.0
2018-Feb-21 02:30N 44°19' E 008°30'0 0.0
2018-Feb-21 02:00N 44°19' E 008°30'0 0.0
2018-Feb-21 01:30N 44°19' E 008°30'0 0.0
2018-Feb-21 01:00N 44°19' E 008°30'0 0.0
2018-Feb-21 00:30N 44°19' E 008°30'0 0.0
2018-Feb-21 00:00N 44°19' E 008°30'0 0.0
2018-Feb-20 23:30N 44°19' E 008°30'0 0.0
2018-Feb-20 23:00N 44°19' E 008°30'0 0.0
2018-Feb-20 22:30N 44°19' E 008°30'0 0.0
2018-Feb-20 22:00N 44°19' E 008°30'0 0.0
2018-Feb-20 21:30N 44°19' E 008°30'0 0.0
2018-Feb-20 21:00N 44°19' E 008°30'0 0.0
2018-Feb-20 20:30N 44°19' E 008°30'0 0.0
2018-Feb-20 20:00N 44°19' E 008°30'0 0.0
2018-Feb-20 19:30N 44°19' E 008°30'0 0.0
2018-Feb-20 19:00N 44°19' E 008°30'0 0.0
2018-Feb-20 18:30N 44°19' E 008°30'0 0.0
2018-Feb-20 18:00N 44°19' E 008°30'0 0.0
2018-Feb-20 17:30N 44°19' E 008°30'0 0.0
2018-Feb-20 17:00N 44°19' E 008°30'0 0.0
2018-Feb-20 16:27N 44°19' E 008°30'0 0.0
2018-Feb-20 16:00N 44°19' E 008°30'0 0.0
2018-Feb-20 15:30N 44°19' E 008°30'0 0.0
2018-Feb-20 14:57N 44°19' E 008°30'0 0.0
2018-Feb-20 14:30N 44°19' E 008°30'0 0.0
2018-Feb-20 13:53N 44°19' E 008°30'0 0.0
2018-Feb-20 13:29N 44°19' E 008°30'0 0.0
2018-Feb-20 12:59N 44°19' E 008°30'0 0.0
2018-Feb-20 12:29N 44°19' E 008°30'0 0.0
2018-Feb-20 11:59N 44°19' E 008°30'0 0.0
2018-Feb-20 11:29N 44°19' E 008°30'0 0.1
2018-Feb-20 11:00N 44°19' E 008°30'1 2.3
2018-Feb-20 10:30N 44°18' E 008°31'1 1.1
2018-Feb-20 10:00N 44°18' E 008°31'0 1.0
2018-Feb-20 09:30N 44°17' E 008°31'0 0.9
2018-Feb-20 09:00N 44°17' E 008°31'0 0.9
2018-Feb-20 08:30N 44°17' E 008°32'1 1.9
2018-Feb-20 08:00N 44°16' E 008°33'3 6.2
2018-Feb-20 07:30N 44°14' E 008°35'4 8.6
2018-Feb-20 07:00N 44°10' E 008°38'4 8.5
2018-Feb-20 06:30N 44°07' E 008°41'4 8.3
2018-Feb-20 06:00N 44°03' E 008°45'4 8.3
2018-Feb-20 05:30N 43°60' E 008°48'4 8.3
2018-Feb-20 05:00N 43°56' E 008°51'4 8.4
2018-Feb-20 04:30N 43°53' E 008°54'4 8.4
2018-Feb-20 04:00N 43°49' E 008°57'4 8.5
2018-Feb-20 03:30N 43°46' E 009°01'4 8.6
2018-Feb-20 03:00N 43°42' E 009°04'4 8.7
2018-Feb-20 02:30N 43°39' E 009°07'4 8.8
2018-Feb-20 02:00N 43°35' E 009°10'5 9.5
2018-Feb-20 01:30N 43°31' E 009°14'5 9.4
2018-Feb-20 01:00N 43°27' E 009°18'4 8.8
2018-Feb-20 00:30N 43°23' E 009°21'4 8.7
2018-Feb-20 00:00N 43°20' E 009°24'5 9.0
2018-Feb-19 23:30N 43°16' E 009°27'5 9.1
2018-Feb-19 22:58N 43°12' E 009°31'4 8.7
2018-Feb-19 22:29N 43°08' E 009°34'366 8.8
2018-Feb-18 04:41N 38°44' E 015°09'3 9.7
2018-Feb-18 04:24N 38°42' E 015°12'4 9.6
2018-Feb-18 03:59N 38°39' E 015°15'5 9.7
2018-Feb-18 03:30N 38°36' E 015°19'5 9.3
2018-Feb-18 02:58N 38°32' E 015°24'4 9.0
2018-Feb-18 02:30N 38°29' E 015°27'5 9.1
2018-Feb-18 02:00N 38°26' E 015°31'5 9.2
2018-Feb-18 01:30N 38°22' E 015°35'4 9.0
2018-Feb-18 01:00N 38°19' E 015°39'4 7.5
2018-Feb-18 00:30N 38°16' E 015°41'4 6.9
2018-Feb-17 23:59N 38°14' E 015°37'4 9.1
2018-Feb-17 23:30N 38°10' E 015°37'4 8.7
2018-Feb-17 23:00N 38°05' E 015°36'5 9.4
2018-Feb-17 22:30N 38°01' E 015°36'4 8.9
2018-Feb-17 22:00N 37°57' E 015°38'5 9.3
2018-Feb-17 21:30N 37°53' E 015°42'5 9.1
2018-Feb-17 21:00N 37°50' E 015°46'5 8.9
2018-Feb-17 20:29N 37°49' E 015°52'4 8.8
2018-Feb-17 20:00N 37°47' E 015°57'4 8.7
2018-Feb-17 19:30N 37°46' E 016°02'  
2018-Feb-14 01:50N 40°45' E 028°49'3 8.9
2018-Feb-14 01:30N 40°46' E 028°53'5 9.0
2018-Feb-14 00:59N 40°46' E 028°59'4 8.8
2018-Feb-14 00:30N 40°45' E 029°05'4 8.9
2018-Feb-14 00:00N 40°45' E 029°11'5 9.4
2018-Feb-13 23:30N 40°44' E 029°17'5 9.2
2018-Feb-13 22:57N 40°44' E 029°23'5 9.8
2018-Feb-13 22:29N 40°45' E 029°29'  
2018-Feb-11 13:51N 40°45' E 029°32'5 9.2
2018-Feb-11 13:21N 40°44' E 029°26'3 9.3
2018-Feb-11 12:59N 40°43' E 029°21'  

Dump ship's entire track history